Time;durP1;ratioP1;P1;durP2;ratioP2;P2;SDS_P1;SDS_P2;PMS_P1;PMS_P2;Temp;Humidity;BMP_temperature;BMP_pressure;BME280_temperature;BME280_humidity;BME280_pressure;Samples;Min_cycle;Max_cycle;Signal;HPM_P1;HPM_P2
2021/07/01 00:02:01;;;;;;;;;8.50;8.00;;;;;23.72;45.67;101442.41;5020892;28;51192;-43
2021/07/01 00:04:27;;;;;;;;;6.50;5.75;;;;;23.71;45.28;101442.66;5012883;27;51619;-45
2021/07/01 00:06:52;;;;;;;;;5.50;5.50;;;;;23.70;45.23;101446.50;5012087;28;51065;-43
2021/07/01 00:09:19;;;;;;;;;4.00;4.00;;;;;23.70;45.59;101441.81;5011426;27;51267;-46
2021/07/01 00:11:47;;;;;;;;;4.00;4.00;;;;;23.69;45.39;101442.88;5012550;28;51218;-47
2021/07/01 00:14:16;;;;;;;;;9.25;6.25;;;;;23.70;45.66;101449.25;5015723;28;51136;-44
2021/07/01 00:16:42;;;;;;;;;6.00;6.00;;;;;23.69;45.44;101445.66;5018657;28;51235;-46
2021/07/01 00:19:07;;;;;;;;;7.00;5.75;;;;;23.68;45.83;101449.50;5015342;27;51283;-43
2021/07/01 00:21:32;;;;;;;;;6.25;6.25;;;;;23.68;45.43;101445.88;5015592;28;51120;-45
2021/07/01 00:23:58;;;;;;;;;7.00;5.75;;;;;23.67;45.51;101439.50;5030231;28;51930;-43
2021/07/01 00:26:24;;;;;;;;;7.75;7.00;;;;;23.68;45.71;101448.66;5014899;27;51122;-43
2021/07/01 00:28:49;;;;;;;;;7.25;6.25;;;;;23.67;45.17;101446.97;5028042;27;51279;-44
2021/07/01 00:31:15;;;;;;;;;6.75;5.25;;;;;23.66;45.65;101448.88;5019875;28;51056;-43
2021/07/01 00:33:40;;;;;;;;;6.00;6.00;;;;;23.66;45.63;101439.75;5018935;28;51090;-44
2021/07/01 00:36:06;;;;;;;;;7.25;7.25;;;;;23.65;45.32;101449.09;5017704;28;51065;-45
2021/07/01 00:38:31;;;;;;;;;6.00;6.00;;;;;23.64;45.76;101442.72;5015089;28;51032;-43
2021/07/01 00:40:56;;;;;;;;;8.25;5.25;;;;;23.64;45.41;101456.53;5015373;27;51113;-43
2021/07/01 00:43:23;;;;;;;;;10.75;8.25;;;;;23.63;45.52;101446.56;5014781;28;51047;-44
2021/07/01 00:45:49;;;;;;;;;6.00;6.00;;;;;23.64;45.29;101441.88;5015856;28;51340;-44
2021/07/01 00:48:14;;;;;;;;;8.00;7.75;;;;;23.63;45.78;101443.78;5016510;28;51228;-44
2021/07/01 00:50:40;;;;;;;;;5.25;4.50;;;;;23.63;45.77;101443.78;5026206;28;51442;-44
2021/07/01 00:53:06;;;;;;;;;8.00;7.75;;;;;23.62;45.11;101444.88;5027505;28;52386;-45
2021/07/01 00:55:32;;;;;;;;;6.00;5.00;;;;;23.63;45.54;101443.78;5016844;28;51588;-45
2021/07/01 00:57:58;;;;;;;;;5.00;5.00;;;;;23.60;45.58;101436.81;5015434;28;51115;-45
2021/07/01 01:02:54;;;;;;;;;8.00;6.00;;;;;23.61;45.12;101443.19;5016981;28;51068;-49
2021/07/01 01:05:20;;;;;;;;;6.00;6.00;;;;;23.60;45.75;101438.72;5015102;28;51010;-45
2021/07/01 01:07:46;;;;;;;;;7.25;6.75;;;;;23.60;45.29;101438.72;5017969;28;51029;-45
2021/07/01 01:10:12;;;;;;;;;7.00;6.00;;;;;23.58;45.67;101436.19;5017520;27;51248;-45
2021/07/01 01:12:37;;;;;;;;;5.25;5.00;;;;;23.58;45.14;101435.31;5022972;28;51025;-43
2021/07/01 01:15:04;;;;;;;;;8.00;6.75;;;;;23.58;45.24;101441.72;5029033;28;50913;-48
2021/07/01 01:17:30;;;;;;;;;5.25;3.25;;;;;23.57;45.56;101440.00;5014826;28;51026;-45
2021/07/01 01:19:55;;;;;;;;;6.00;5.75;;;;;23.56;45.31;101432.78;5014619;28;51032;-47
2021/07/01 01:22:20;;;;;;;;;9.25;6.00;;;;;23.56;45.17;101432.78;5016139;28;51909;-44
2021/07/01 01:24:46;;;;;;;;;5.50;5.00;;;;;23.55;45.39;101436.63;5018767;27;51493;-48
2021/07/01 01:27:11;;;;;;;;;7.25;6.00;;;;;23.55;45.28;101438.50;5019469;27;51165;-43
2021/07/01 01:29:36;;;;;;;;;6.00;5.00;;;;;23.54;45.40;101432.13;5016069;28;52277;-45
2021/07/01 01:32:02;;;;;;;;;6.00;6.00;;;;;23.54;44.97;101431.28;5018014;28;52620;-47
2021/07/01 01:34:27;;;;;;;;;8.50;6.00;;;;;23.54;45.25;101439.59;5015021;28;51188;-44
2021/07/01 01:36:53;;;;;;;;;5.25;5.25;;;;;23.53;44.91;101435.13;5014193;28;51190;-46
2021/07/01 01:39:19;;;;;;;;;5.50;4.75;;;;;23.54;45.00;101437.66;5013980;27;51335;-43
2021/07/01 01:41:45;;;;;;;;;7.25;5.50;;;;;23.51;45.46;101437.28;5017909;28;51663;-48
2021/07/01 01:44:10;;;;;;;;;7.50;7.00;;;;;23.52;45.33;101434.28;5016391;27;51099;-43
2021/07/01 01:46:38;;;;;;;;;6.00;6.00;;;;;23.51;45.09;101438.13;5014233;28;51568;-44
2021/07/01 01:49:05;;;;;;;;;6.00;5.00;;;;;23.52;45.50;101436.22;5014139;28;52658;-44
2021/07/01 01:51:30;;;;;;;;;4.25;4.25;;;;;23.50;44.88;101436.44;5015123;28;51359;-46
2021/07/01 01:53:56;;;;;;;;;5.00;5.00;;;;;23.50;45.34;101435.59;5014267;28;51325;-44
2021/07/01 01:56:21;;;;;;;;;7.00;6.00;;;;;23.49;44.88;101434.75;5017680;28;51051;-45
2021/07/01 01:58:46;;;;;;;;;7.25;6.75;;;;;23.49;45.39;101428.38;5020715;27;51505;-43
2021/07/01 02:01:12;;;;;;;;;8.50;6.00;;;;;23.49;45.34;101431.16;5028062;28;50809;-45
2021/07/01 02:03:37;;;;;;;;;6.25;6.25;;;;;23.48;45.44;101432.22;5021567;28;51107;-44
2021/07/01 02:06:03;;;;;;;;;5.25;5.25;;;;;23.48;45.45;101426.69;5014288;27;51089;-45
2021/07/01 02:08:28;;;;;;;;;2.50;2.00;;;;;23.47;45.34;101425.84;5014266;28;51455;-44
2021/07/01 02:10:53;;;;;;;;;7.00;6.75;;;;;23.47;45.02;101420.31;5012942;28;52809;-44
2021/07/01 02:13:19;;;;;;;;;6.25;6.25;;;;;23.46;45.18;101429.69;5014153;28;51087;-44
2021/07/01 02:15:44;;;;;;;;;7.75;5.25;;;;;23.46;45.45;101426.94;5017847;28;51117;-44
2021/07/01 02:18:10;;;;;;;;;5.25;5.00;;;;;23.46;45.05;101424.16;5017183;28;51076;-44
2021/07/01 02:20:36;;;;;;;;;6.50;6.50;;;;;23.45;45.37;101425.25;5013736;28;50905;-43
2021/07/01 02:23:02;;;;;;;;;8.50;6.75;;;;;23.45;45.54;101427.16;5014509;28;51036;-43
2021/07/01 02:25:27;;;;;;;;;8.00;7.00;;;;;23.45;45.64;101422.47;5014800;28;50992;-43
2021/07/01 02:27:53;;;;;;;;;6.00;6.00;;;;;23.45;45.01;101429.94;5037265;27;50929;-44
2021/07/01 02:30:19;;;;;;;;;6.00;6.00;;;;;23.44;45.00;101428.22;5015365;28;51961;-44
2021/07/01 02:32:44;;;;;;;;;6.50;4.50;;;;;23.43;45.29;101424.59;5028968;28;50430;-42
2021/07/01 02:35:11;;;;;;;;;7.50;7.50;;;;;23.44;45.47;101425.44;5016900;28;51673;-43
2021/07/01 02:37:38;;;;;;;;;6.25;6.25;;;;;23.42;45.02;101425.69;5013723;28;51343;-44
2021/07/01 02:40:09;;;;;;;;;8.00;6.25;;;;;23.42;45.00;101422.91;5013574;28;53510;-44
2021/07/01 02:42:34;;;;;;;;;6.00;6.00;;;;;23.41;45.56;101410.16;5021442;27;51175;-45
2021/07/01 02:45:00;;;;;;;;;4.50;4.50;;;;;23.41;45.28;101412.94;5026426;28;51155;-43
2021/07/01 02:47:25;;;;;;;;;6.75;6.75;;;;;23.41;45.37;101412.09;5013925;28;51125;-43
2021/07/01 02:49:50;;;;;;;;;7.50;5.50;;;;;23.40;45.48;101407.63;5019913;28;50968;-44
2021/07/01 02:52:16;;;;;;;;;7.75;6.50;;;;;23.40;45.23;101416.78;5018365;28;51276;-43
2021/07/01 02:54:41;;;;;;;;;10.25;7.25;;;;;23.40;45.34;101414.00;5012262;27;51252;-46
2021/07/01 02:57:06;;;;;;;;;9.00;7.00;;;;;23.39;45.46;101412.31;5011238;28;51408;-44
2021/07/01 02:59:32;;;;;;;;;9.00;8.75;;;;;23.39;45.13;101412.31;5013133;28;52548;-43
2021/07/01 03:01:57;;;;;;;;;8.00;7.00;;;;;23.39;45.43;101411.47;5014643;28;51220;-46
2021/07/01 03:04:23;;;;;;;;;10.00;7.50;;;;;23.39;45.72;101415.09;5016247;28;51066;-43
2021/07/01 03:06:48;;;;;;;;;8.00;8.00;;;;;23.38;45.64;101407.88;5014851;28;51405;-43
2021/07/01 03:09:13;;;;;;;;;8.50;7.50;;;;;23.38;45.69;101413.41;5018293;28;51114;-42
2021/07/01 03:11:39;;;;;;;;;9.25;7.25;;;;;23.38;45.61;101407.03;5028359;28;50446;-44
2021/07/01 03:14:06;;;;;;;;;8.75;8.00;;;;;23.37;45.70;101403.41;5020854;28;51427;-42
2021/07/01 03:16:33;;;;;;;;;7.75;7.50;;;;;23.38;45.40;101404.25;5030562;28;51181;-46
2021/07/01 03:18:58;;;;;;;;;11.00;9.50;;;;;23.37;45.17;101408.94;5012783;28;51153;-46
2021/07/01 03:21:24;;;;;;;;;11.00;9.25;;;;;23.37;45.58;101413.63;5014023;28;51134;-44
2021/07/01 03:23:49;;;;;;;;;8.50;7.25;;;;;23.36;45.33;101401.72;5017224;28;51007;-45
2021/07/01 03:26:16;;;;;;;;;8.00;6.75;;;;;23.36;45.91;101400.88;5016530;28;51088;-44
2021/07/01 03:28:42;;;;;;;;;7.00;7.00;;;;;23.35;45.52;101400.03;5015232;27;51171;-45
2021/07/01 03:31:08;;;;;;;;;9.00;7.50;;;;;23.34;45.45;101401.09;5012832;27;51355;-45
2021/07/01 03:33:35;;;;;;;;;8.00;8.00;;;;;23.33;45.72;101405.78;5015105;28;50943;-44
2021/07/01 03:36:01;;;;;;;;;7.75;6.00;;;;;23.33;45.34;101403.00;5017289;28;51126;-44
2021/07/01 03:38:27;;;;;;;;;10.50;6.25;;;;;23.34;45.76;101403.84;5012903;27;53003;-46
2021/07/01 03:40:53;;;;;;;;;7.50;7.50;;;;;23.34;45.36;101414.91;5015150;28;51252;-46
2021/07/01 03:43:18;;;;;;;;;9.50;6.75;;;;;23.32;45.46;101403.25;5014909;27;51057;-48
2021/07/01 03:45:44;;;;;;;;;7.00;7.00;;;;;23.33;45.36;101407.69;5013205;28;51156;-43
2021/07/01 03:48:10;;;;;;;;;8.25;6.25;;;;;23.31;45.76;101410.69;5027340;28;52695;-44
2021/07/01 03:50:35;;;;;;;;;8.00;7.00;;;;;23.32;45.55;101411.53;5014950;28;51068;-47
2021/07/01 03:53:01;;;;;;;;;9.25;7.00;;;;;23.31;45.26;101412.59;5016344;28;51001;-46
2021/07/01 03:55:26;;;;;;;;;7.25;7.25;;;;;23.30;45.31;101411.75;5025463;27;51231;-44
2021/07/01 03:57:52;;;;;;;;;9.00;7.00;;;;;23.30;45.43;101420.06;5026636;28;51221;-45
2021/07/01 04:00:18;;;;;;;;;7.75;7.50;;;;;23.29;45.88;101418.38;5019246;27;51823;-44
2021/07/01 04:02:43;;;;;;;;;8.00;7.00;;;;;23.30;45.70;101413.69;5016747;28;51280;-45
2021/07/01 04:05:09;;;;;;;;;7.00;7.00;;;;;23.29;45.62;101415.59;5018136;28;50990;-45
2021/07/01 04:07:35;;;;;;;;;9.00;7.25;;;;;23.28;45.25;101408.38;5018486;28;52722;-43
2021/07/01 04:10:06;;;;;;;;;13.00;9.00;;;;;23.28;45.85;101416.69;5015332;27;50852;-43
2021/07/01 04:12:35;;;;;;;;;5.50;5.25;;;;;23.27;45.65;101416.91;5015303;28;52552;-44
2021/07/01 04:15:02;;;;;;;;;13.00;10.25;;;;;23.27;45.43;101409.47;5020455;28;50902;-43
2021/07/01 04:17:27;;;;;;;;;8.75;6.00;;;;;23.27;45.53;101411.38;5031310;28;51151;-46
2021/07/01 04:19:52;;;;;;;;;8.75;8.00;;;;;23.26;45.48;101412.47;5019157;28;51257;-44
2021/07/01 04:22:18;;;;;;;;;7.00;7.00;;;;;23.26;45.46;101409.69;5022101;27;51293;-44
2021/07/01 04:24:43;;;;;;;;;6.75;6.00;;;;;23.25;45.82;101408.00;5030709;27;50979;-43
2021/07/01 04:27:08;;;;;;;;;6.75;6.25;;;;;23.25;45.72;101406.09;5029659;27;51885;-44
2021/07/01 04:29:34;;;;;;;;;7.00;6.25;;;;;23.24;45.64;101418.22;5027578;27;50987;-46
2021/07/01 04:31:59;;;;;;;;;6.50;5.75;;;;;23.25;45.79;101422.66;5014797;28;51110;-43
2021/07/01 04:34:25;;;;;;;;;7.50;6.75;;;;;23.26;45.72;101423.50;5019187;28;51127;-48
2021/07/01 04:36:51;;;;;;;;;6.75;6.75;;;;;23.26;45.64;101424.34;5019438;28;51810;-44
2021/07/01 04:39:17;;;;;;;;;8.50;7.50;;;;;23.25;45.16;101424.59;5033160;28;51106;-48
2021/07/01 04:41:42;;;;;;;;;8.50;6.50;;;;;23.26;45.70;101426.28;5015791;27;51618;-47
2021/07/01 04:44:08;;;;;;;;;10.75;9.75;;;;;23.24;45.48;101429.28;5015157;28;51234;-48
2021/07/01 04:46:34;;;;;;;;;6.50;6.50;;;;;23.25;45.46;101436.50;5014162;28;51931;-44
2021/07/01 04:48:59;;;;;;;;;7.50;7.50;;;;;23.24;45.57;101429.28;5016428;28;51122;-43
2021/07/01 04:51:25;;;;;;;;;7.75;6.75;;;;;23.24;45.71;101434.81;5019604;27;51079;-42
2021/07/01 04:53:51;;;;;;;;;9.00;9.00;;;;;23.24;45.92;101431.16;5018371;28;51060;-45
2021/07/01 04:56:16;;;;;;;;;8.00;8.00;;;;;23.24;45.36;101434.81;5030210;28;51566;-45
2021/07/01 04:58:41;;;;;;;;;5.50;5.50;;;;;23.25;45.40;101432.88;5014444;28;51103;-46
2021/07/01 05:01:07;;;;;;;;;7.00;7.00;;;;;23.25;45.98;101436.50;5015021;27;51853;-50
2021/07/01 05:03:32;;;;;;;;;7.50;5.00;;;;;23.25;45.97;101436.50;5018674;27;50854;-48
2021/07/01 05:05:57;;;;;;;;;5.75;5.75;;;;;23.25;46.11;101428.19;5015159;28;51881;-60
2021/07/01 05:08:23;;;;;;;;;10.00;8.25;;;;;23.26;46.11;101440.94;5017900;28;51010;-48
2021/07/01 05:10:48;;;;;;;;;10.00;8.25;;;;;23.27;45.84;101441.78;5032080;28;51069;-47
2021/07/01 05:13:13;;;;;;;;;9.00;8.00;;;;;23.26;46.00;101440.09;5014622;28;51163;-51
2021/07/01 05:15:39;;;;;;;;;12.50;8.75;;;;;23.27;46.00;101436.25;5018016;28;51261;-49
2021/07/01 05:18:04;;;;;;;;;11.50;8.00;;;;;23.27;46.11;101436.25;5018644;28;51068;-50
2021/07/01 05:20:30;;;;;;;;;10.75;8.50;;;;;23.27;46.08;101439.88;5018605;27;51001;-45
2021/07/01 05:22:55;;;;;;;;;10.00;9.75;;;;;23.26;45.56;101446.47;5018306;28;51402;-47
2021/07/01 05:25:21;;;;;;;;;12.50;11.25;;;;;23.26;45.93;101440.94;5017813;27;51880;-48
2021/07/01 05:27:46;;;;;;;;;9.25;9.25;;;;;23.26;46.44;101445.63;5017752;27;51201;-50
2021/07/01 05:30:13;;;;;;;;;12.50;8.25;;;;;23.25;46.59;101435.66;5014767;27;51165;-45
2021/07/01 05:32:38;;;;;;;;;13.75;10.00;;;;;23.26;46.39;101440.09;5015454;27;51298;-46
2021/07/01 05:35:05;;;;;;;;;10.75;9.75;;;;;23.26;46.77;101438.19;5030603;28;54048;-47
2021/07/01 05:37:30;;;;;;;;;5.50;5.50;;;;;23.26;46.21;101445.63;5023219;27;51348;-51
2021/07/01 05:39:55;;;;;;;;;8.00;7.75;;;;;23.25;46.59;101443.94;5016593;28;51111;-51
2021/07/01 05:42:21;;;;;;;;;11.00;11.00;;;;;23.26;46.41;101454.75;5017745;28;51308;-46
2021/07/01 05:44:46;;;;;;;;;9.75;8.25;;;;;23.25;45.94;101452.22;5018639;28;50968;-48
2021/07/01 05:47:11;;;;;;;;;8.25;8.00;;;;;23.24;46.59;101454.16;5015934;28;51018;-48
2021/07/01 05:49:37;;;;;;;;;9.75;9.75;;;;;23.26;45.88;101451.16;5026648;27;50780;-47
2021/07/01 05:52:04;;;;;;;;;13.00;9.25;;;;;23.24;46.22;101447.75;5025734;28;50489;-47
2021/07/01 05:54:38;;;;;;;;;11.50;10.25;;;;;23.24;46.12;101453.28;5014458;28;52678;-46
2021/07/01 05:57:04;;;;;;;;;10.75;8.50;;;;;23.24;46.39;101458.81;5002439;28;50840;-49
2021/07/01 05:59:30;;;;;;;;;10.50;9.50;;;;;23.24;46.16;101453.28;5015113;28;51236;-46
2021/07/01 06:01:56;;;;;;;;;9.00;8.00;;;;;23.24;46.05;101458.81;5018993;27;51108;-46
2021/07/01 06:04:21;;;;;;;;;10.50;10.50;;;;;23.23;45.98;101457.97;5015647;27;51057;-46
2021/07/01 06:06:53;;;;;;;;;10.75;10.25;;;;;23.25;45.70;101457.75;5015000;28;51018;-48
2021/07/01 06:09:26;;;;;;;;;11.75;10.75;;;;;23.24;46.16;101459.69;5014952;28;50963;-50
2021/07/01 06:11:57;;;;;;;;;13.50;10.25;;;;;23.26;46.02;101459.44;5031693;28;51268;-44
2021/07/01 06:14:24;;;;;;;;;11.25;10.25;;;;;23.27;46.40;101459.22;5016419;28;52448;-48
2021/07/01 06:16:52;;;;;;;;;11.50;10.50;;;;;23.29;46.06;101456.22;5016706;28;51097;-47
2021/07/01 06:19:18;;;;;;;;;13.25;10.00;;;;;23.30;45.76;101466.22;5018519;28;50934;-47
2021/07/01 06:21:44;;;;;;;;;11.75;10.50;;;;;23.31;46.00;101465.13;5032343;28;50992;-49
2021/07/01 06:24:10;;;;;;;;;12.25;10.75;;;;;23.32;46.00;101466.81;5014014;28;50992;-45
2021/07/01 06:26:36;;;;;;;;;8.50;7.75;;;;;23.31;45.93;101459.59;5014673;27;51190;-46
2021/07/01 06:29:03;;;;;;;;;11.50;10.00;;;;;23.31;45.78;101460.44;5023099;27;51199;-48
2021/07/01 06:31:29;;;;;;;;;9.50;9.50;;;;;23.32;45.69;101466.81;5014848;28;51166;-50
2021/07/01 06:33:54;;;;;;;;;9.50;7.75;;;;;23.32;46.04;101472.34;5015842;28;51778;-48
2021/07/01 06:36:27;;;;;;;;;11.75;8.75;;;;;23.31;45.70;101470.66;5017371;28;51102;-51
2021/07/01 06:39:00;;;;;;;;;13.00;8.50;;;;;23.30;45.87;101469.81;5015621;28;51074;-48
2021/07/01 06:41:29;;;;;;;;;12.00;10.50;;;;;23.31;45.40;101467.91;5014428;27;51350;-51
2021/07/01 06:43:56;;;;;;;;;9.00;8.50;;;;;23.31;45.63;101467.91;5016837;28;51038;-47
2021/07/01 06:46:25;;;;;;;;;9.25;7.50;;;;;23.32;45.85;101466.81;5016509;28;51136;-46
2021/07/01 06:48:53;;;;;;;;;12.75;9.25;;;;;23.33;45.85;101474.88;5025048;28;51581;-47
2021/07/01 06:51:18;;;;;;;;;7.00;7.00;;;;;23.33;45.77;101469.34;5024329;28;51416;-47
2021/07/01 06:53:45;;;;;;;;;10.25;8.25;;;;;23.34;45.75;101467.44;5017587;28;52505;-44
2021/07/01 06:56:12;;;;;;;;;11.25;8.75;;;;;23.35;45.35;101480.22;5016107;28;51407;-49
2021/07/01 06:58:40;;;;;;;;;9.75;7.00;;;;;23.34;45.03;101472.97;5013688;28;51079;-50
2021/07/01 07:01:05;;;;;;;;;10.00;6.25;;;;;23.35;45.28;101474.69;5014309;28;51107;-50
2021/07/01 07:03:31;;;;;;;;;9.50;9.50;;;;;23.35;45.38;101480.22;5014028;28;51667;-48
2021/07/01 07:05:59;;;;;;;;;10.00;8.75;;;;;23.35;45.31;101473.84;5016738;28;51098;-49
2021/07/01 07:08:25;;;;;;;;;7.00;7.00;;;;;23.35;45.14;101488.50;5016425;27;51053;-47
2021/07/01 07:10:50;;;;;;;;;8.25;8.25;;;;;23.37;44.83;101483.59;5015581;28;51068;-51
2021/07/01 07:13:16;;;;;;;;;8.25;8.25;;;;;23.38;45.23;101476.97;5016072;28;50936;-51
2021/07/01 07:15:44;;;;;;;;;10.00;9.00;;;;;23.39;45.08;101484.19;5016237;28;51480;-49
2021/07/01 07:18:19;;;;;;;;;10.25;9.50;;;;;23.40;44.85;101480.34;5014495;28;50868;-47
2021/07/01 07:20:51;;;;;;;;;8.50;7.50;;;;;23.43;45.02;101481.81;5021939;27;51253;-51
2021/07/01 07:23:18;;;;;;;;;10.25;9.00;;;;;23.46;44.83;101487.75;5027169;28;50929;-50
2021/07/01 07:25:45;;;;;;;;;8.00;7.25;;;;;23.49;44.53;101484.53;5016586;28;51008;-49
2021/07/01 07:28:11;;;;;;;;;11.00;8.25;;;;;23.52;44.88;101484.06;5018284;27;51058;-47
2021/07/01 07:30:38;;;;;;;;;9.75;9.50;;;;;23.58;45.07;101494.28;5013260;28;51040;-48
2021/07/01 07:33:06;;;;;;;;;11.75;8.75;;;;;23.63;44.43;101479.75;5013276;28;52326;-51
2021/07/01 07:35:33;;;;;;;;;7.75;7.75;;;;;23.68;44.88;101481.84;5013441;27;50944;-50
2021/07/01 07:38:01;;;;;;;;;13.50;10.00;;;;;23.71;45.05;101484.97;5013524;28;51840;-47
2021/07/01 07:40:27;;;;;;;;;9.50;7.50;;;;;23.77;44.37;101483.25;5014052;28;51171;-50
2021/07/01 07:42:53;;;;;;;;;12.00;10.25;;;;;23.82;45.10;101480.63;5018595;28;51636;-49
2021/07/01 07:45:18;;;;;;;;;13.50;10.50;;;;;23.86;44.46;101482.72;5019478;28;50990;-46
2021/07/01 07:47:44;;;;;;;;;14.00;11.00;;;;;23.89;44.38;101484.16;5013646;28;50994;-47
2021/07/01 07:50:11;;;;;;;;;11.00;9.50;;;;;23.93;44.69;101485.38;5013752;27;51247;-51
2021/07/01 07:52:51;;;;;;;;;8.75;8.75;;;;;23.97;44.40;101486.63;5013532;27;51690;-50
2021/07/01 07:55:20;;;;;;;;;7.75;7.00;;;;;23.97;44.52;101481.09;5012400;27;51166;-46
2021/07/01 07:57:51;;;;;;;;;11.50;9.25;;;;;24.01;44.15;101476.78;5015002;28;50956;-47
2021/07/01 08:00:19;;;;;;;;;8.00;7.50;;;;;24.04;44.31;101481.84;5025391;28;51132;-46
2021/07/01 08:02:48;;;;;;;;;8.25;7.75;;;;;24.08;44.10;101488.63;5040007;27;52888;-48
2021/07/01 08:05:22;;;;;;;;;8.25;8.00;;;;;24.13;44.47;101497.06;5013439;28;50999;-50
2021/07/01 08:07:49;;;;;;;;;8.50;8.00;;;;;24.13;44.11;101497.06;5012712;28;51153;-46
2021/07/01 08:10:18;;;;;;;;;10.25;8.50;;;;;24.15;44.60;101483.84;5013645;28;51111;-49
2021/07/01 08:12:49;;;;;;;;;11.50;10.00;;;;;24.16;44.52;101488.28;5015291;28;51876;-47
2021/07/01 08:15:18;;;;;;;;;8.50;8.50;;;;;24.18;44.16;101482.56;5015398;28;50907;-51
2021/07/01 08:17:44;;;;;;;;;11.50;9.75;;;;;24.17;44.00;101487.22;5027079;28;51091;-51
2021/07/01 08:20:13;;;;;;;;;7.00;6.50;;;;;24.16;43.99;101485.53;5024646;28;51055;-51
2021/07/01 08:22:43;;;;;;;;;13.75;11.50;;;;;24.17;44.12;101480.84;5027572;28;52674;-48
2021/07/01 08:25:10;;;;;;;;;11.50;9.75;;;;;24.17;44.21;101473.38;5012567;28;51316;-50
2021/07/01 08:27:36;;;;;;;;;10.75;9.75;;;;;24.18;44.25;101475.09;5013485;27;51172;-45
2021/07/01 08:30:05;;;;;;;;;11.25;10.25;;;;;24.22;43.64;101471.84;5012642;28;51216;-49
2021/07/01 08:32:32;;;;;;;;;15.50;12.25;;;;;24.23;43.94;101470.78;5014558;28;52016;-49
2021/07/01 08:35:01;;;;;;;;;14.75;10.25;;;;;24.22;43.81;101467.16;5016241;28;50951;-46
2021/07/01 08:37:28;;;;;;;;;13.50;12.00;;;;;24.21;43.98;101468.25;5018050;28;50999;-48
2021/07/01 08:39:58;;;;;;;;;13.50;11.75;;;;;24.23;43.76;101465.22;5019377;28;50842;-51
2021/07/01 08:42:26;;;;;;;;;11.00;10.75;;;;;24.24;43.59;101466.91;5017245;28;52071;-57
2021/07/01 08:45:04;;;;;;;;;13.75;13.00;;;;;24.24;43.50;101467.75;5017521;27;51190;-50
2021/07/01 08:47:32;;;;;;;;;12.25;11.50;;;;;24.24;43.69;101469.69;5020254;28;51110;-48
2021/07/01 08:50:21;;;;;;;;;15.25;13.50;;;;;24.27;43.73;101469.22;5023934;27;51152;-45
2021/07/01 08:53:04;;;;;;;;;14.50;13.75;;;;;24.28;43.66;101468.13;5016825;28;52137;-45
2021/07/01 08:55:31;;;;;;;;;15.75;13.00;;;;;24.30;43.43;101468.78;5013537;28;51042;-48
2021/07/01 08:57:59;;;;;;;;;13.75;12.00;;;;;24.32;43.27;101466.63;5012916;28;51337;-47
2021/07/01 09:00:26;;;;;;;;;13.00;12.50;;;;;24.34;43.53;101475.56;5011835;28;50943;-47
2021/07/01 09:03:09;;;;;;;;;12.50;11.00;;;;;24.35;43.29;101477.25;5015826;27;51685;-46
2021/07/01 09:05:36;;;;;;;;;14.50;12.00;;;;;24.36;43.48;101474.22;5035520;27;51291;-46
2021/07/01 09:08:08;;;;;;;;;11.50;9.75;;;;;24.36;43.42;101479.78;5025375;28;51145;-53
2021/07/01 09:10:34;;;;;;;;;14.25;13.50;;;;;24.35;43.26;101477.25;5027930;28;50995;-51
2021/07/01 09:13:04;;;;;;;;;15.50;13.25;;;;;24.34;43.22;101464.47;5015618;28;52035;-50
2021/07/01 09:15:31;;;;;;;;;14.50;12.25;;;;;24.33;43.27;101479.41;5016546;27;51369;-50
2021/07/01 09:17:57;;;;;;;;;12.00;12.00;;;;;24.33;43.42;101471.09;5003081;28;51199;-51
2021/07/01 09:20:39;;;;;;;;;17.50;11.25;;;;;24.32;43.60;101473.03;5016243;28;51331;-50
2021/07/01 09:23:11;;;;;;;;;11.00;9.25;;;;;24.32;43.13;101478.56;5018255;27;51701;-51
2021/07/01 09:25:37;;;;;;;;;14.25;13.25;;;;;24.32;43.29;101481.31;5015151;28;51317;-52
2021/07/01 09:28:03;;;;;;;;;11.75;11.25;;;;;24.31;43.48;101476.88;5017657;27;51238;-52
2021/07/01 09:30:31;;;;;;;;;17.75;15.50;;;;;24.31;43.22;101473.25;5015091;28;51394;-52
2021/07/01 09:33:01;;;;;;;;;15.50;15.00;;;;;24.31;43.23;101470.50;5013707;27;50964;-50
2021/07/01 09:35:30;;;;;;;;;12.75;11.75;;;;;24.30;43.16;101474.31;5017533;27;51398;-52
2021/07/01 09:37:59;;;;;;;;;12.75;11.50;;;;;24.29;43.23;101465.16;5018558;27;51125;-51
2021/07/01 09:40:25;;;;;;;;;17.50;16.25;;;;;24.29;43.23;101470.69;5032482;28;51251;-53
2021/07/01 09:43:01;;;;;;;;;13.25;12.25;;;;;24.29;43.09;101465.16;5014663;27;51137;-50
2021/07/01 09:45:27;;;;;;;;;15.75;10.25;;;;;24.29;43.33;101481.78;5015068;28;51039;-51
2021/07/01 09:47:56;;;;;;;;;13.25;13.00;;;;;24.29;43.47;101472.63;5013239;28;51210;-51
2021/07/01 09:50:25;;;;;;;;;12.75;12.00;;;;;24.28;43.31;101469.00;5003061;28;51273;-52
2021/07/01 09:52:55;;;;;;;;;14.50;14.00;;;;;24.27;43.40;101481.13;5016953;28;52666;-51
2021/07/01 09:55:27;;;;;;;;;7.75;7.75;;;;;24.27;43.30;101480.28;5016055;27;50887;-52
2021/07/01 09:57:55;;;;;;;;;13.75;12.50;;;;;24.26;43.28;101481.38;5014748;27;51129;-52
2021/07/01 10:00:20;;;;;;;;;13.75;12.50;;;;;24.25;43.23;101477.75;5017118;27;51196;-53
2021/07/01 10:03:01;;;;;;;;;15.50;14.25;;;;;24.26;43.18;101467.53;5030889;27;53107;-52
2021/07/01 10:05:28;;;;;;;;;13.50;11.00;;;;;24.25;43.54;101471.38;5014797;28;51313;-53
2021/07/01 10:07:54;;;;;;;;;14.00;12.75;;;;;24.25;43.48;101468.59;5015743;28;51127;-52
2021/07/01 10:10:21;;;;;;;;;11.50;11.00;;;;;24.24;43.38;101472.47;5018594;28;50891;-50
2021/07/01 10:13:07;;;;;;;;;17.00;13.50;;;;;24.24;43.54;101470.53;5019056;28;52253;-46
2021/07/01 10:15:34;;;;;;;;;13.50;12.00;;;;;24.24;43.64;101464.16;5026961;28;50999;-47
2021/07/01 10:18:15;;;;;;;;;13.50;12.00;;;;;24.25;44.15;101468.59;5026541;27;51002;-48
2021/07/01 10:20:48;;;;;;;;;18.00;14.75;;;;;24.26;43.93;101467.53;5010517;28;51114;-46
2021/07/01 10:23:27;;;;;;;;;16.75;13.00;;;;;24.25;44.67;101468.59;5014187;28;51004;-49
2021/07/01 10:25:56;;;;;;;;;14.00;11.00;;;;;24.25;44.38;101469.44;5017032;28;50955;-49
2021/07/01 10:28:23;;;;;;;;;15.25;15.25;;;;;24.26;44.33;101470.28;5020132;27;51135;-49
2021/07/01 10:30:55;;;;;;;;;16.75;13.25;;;;;24.26;44.20;101462.84;5014327;27;51047;-46
2021/07/01 10:33:23;;;;;;;;;15.00;15.00;;;;;24.25;44.44;101461.16;5014409;28;51081;-50
2021/07/01 10:35:49;;;;;;;;;15.50;14.25;;;;;24.27;44.26;101463.69;5014988;28;50994;-49
2021/07/01 10:38:14;;;;;;;;;15.50;14.50;;;;;24.27;44.13;101469.22;5014145;28;51192;-48
2021/07/01 10:40:55;;;;;;;;;17.50;14.75;;;;;24.27;44.38;101472.81;5012652;28;51254;-46
2021/07/01 10:43:38;;;;;;;;;21.75;16.00;;;;;24.27;44.21;101467.28;5014288;28;51488;-51
2021/07/01 10:46:04;;;;;;;;;16.00;14.25;;;;;24.27;44.16;101472.81;5015445;27;51005;-49
2021/07/01 10:48:30;;;;;;;;;15.50;15.50;;;;;24.27;44.00;101472.81;5012337;27;51005;-51
2021/07/01 10:51:06;;;;;;;;;15.00;14.75;;;;;24.27;44.01;101478.38;5014009;28;51086;-47
2021/07/01 10:53:33;;;;;;;;;18.50;17.50;;;;;24.26;43.76;101479.44;5014206;27;51050;-46
2021/07/01 10:56:05;;;;;;;;;15.50;15.50;;;;;24.26;43.76;101476.69;5013380;28;51377;-48
2021/07/01 10:58:31;;;;;;;;;16.50;13.00;;;;;24.27;43.72;101474.75;5013334;28;51045;-50
2021/07/01 11:01:01;;;;;;;;;17.75;14.75;;;;;24.26;43.81;101478.59;5016507;28;51025;-49
2021/07/01 11:03:32;;;;;;;;;16.25;15.25;;;;;24.27;44.02;101471.97;5029353;27;51862;-50
2021/07/01 11:06:02;;;;;;;;;17.75;17.50;;;;;24.26;43.75;101476.69;5013082;27;51023;-49
2021/07/01 11:08:27;;;;;;;;;20.50;15.00;;;;;24.27;43.62;101481.13;5011677;28;51051;-50
2021/07/01 11:10:53;;;;;;;;;18.00;18.00;;;;;24.26;43.72;101473.91;5013553;27;51351;-46
2021/07/01 11:13:23;;;;;;;;;18.25;16.00;;;;;24.27;43.60;101471.97;5012772;28;52621;-49
2021/07/01 11:16:01;;;;;;;;;16.75;15.25;;;;;24.28;44.06;101468.13;5015679;28;51206;-48
2021/07/01 11:18:50;;;;;;;;;19.75;18.75;;;;;24.28;43.99;101484.75;5018351;28;51039;-51
2021/07/01 11:21:18;;;;;;;;;16.50;16.50;;;;;24.28;44.04;101482.84;5013799;28;51194;-51
2021/07/01 11:23:46;;;;;;;;;17.75;16.25;;;;;24.29;43.61;101475.38;5013823;28;52463;-48